Time;durP1;ratioP1;P1;durP2;ratioP2;P2;SDS_P1;SDS_P2;PMS_P1;PMS_P2;Temp;Humidity;BMP_temperature;BMP_pressure;BME280_temperature;BME280_humidity;BME280_pressure;Samples;Min_cycle;Max_cycle;Signal;HPM_P1;HPM_P2
2022/05/20 00:01:11;;;;;;;6.85;2.38;;;;;;;24.94;36.09;101662.97;5076933;28;20078;-44
2022/05/20 00:03:40;;;;;;;7.00;2.25;;;;;;;24.90;36.22;101653.25;5076607;28;20032;-46
2022/05/20 00:06:09;;;;;;;7.88;2.40;;;;;;;24.89;36.36;101638.34;5076627;28;20493;-49
2022/05/20 00:08:38;;;;;;;7.57;2.13;;;;;;;24.81;36.29;101632.09;5076454;28;20025;-45
2022/05/20 00:11:07;;;;;;;6.25;1.85;;;;;;;24.79;36.18;101629.41;5076505;28;20170;-46
2022/05/20 00:13:36;;;;;;;8.18;2.33;;;;;;;24.78;36.28;101638.13;5076600;28;20024;-46
2022/05/20 00:16:04;;;;;;;7.57;1.77;;;;;;;24.79;36.28;101633.78;5076059;28;20036;-44
2022/05/20 00:18:33;;;;;;;9.40;3.03;;;;;;;24.77;35.92;101623.25;5076385;28;20032;-45
2022/05/20 00:21:01;;;;;;;10.98;2.13;;;;;;;24.79;35.59;101632.03;5076442;28;20098;-45
2022/05/20 00:23:30;;;;;;;7.05;2.20;;;;;;;24.81;35.90;101611.97;5076117;28;20559;-46
2022/05/20 00:25:58;;;;;;;9.32;2.00;;;;;;;24.68;36.40;101595.03;5075725;28;20474;-47
2022/05/20 00:28:29;;;;;;;8.93;2.60;;;;;;;24.68;36.00;101623.03;5075871;28;20493;-48
2022/05/20 00:31:00;;;;;;;8.95;2.13;;;;;;;24.65;36.02;101625.59;5091695;28;20036;-45
2022/05/20 00:33:30;;;;;;;9.27;2.45;;;;;;;24.67;35.74;101614.25;5075193;28;20024;-47
2022/05/20 00:35:58;;;;;;;7.15;1.92;;;;;;;24.69;35.74;101637.94;5075870;28;20043;-45
2022/05/20 00:38:27;;;;;;;9.52;2.83;;;;;;;24.67;35.97;101640.50;5075608;28;20084;-44
2022/05/20 00:40:58;;;;;;;5.53;1.95;;;;;;;24.66;35.75;101649.22;5075529;28;20509;-45
2022/05/20 00:43:35;;;;;;;8.57;1.90;;;;;;;24.65;35.99;101655.34;5075533;28;20059;-46
2022/05/20 00:46:10;;;;;;;7.63;1.92;;;;;;;24.69;36.11;101625.69;5076125;28;20048;-45
2022/05/20 00:48:38;;;;;;;;;;;;;;;24.69;35.63;101627.44;5076436;28;20545;-46
2022/05/20 00:51:10;;;;;;;10.07;2.40;;;;;;;24.69;36.08;101624.81;5075991;28;20365;-46
2022/05/20 00:53:44;;;;;;;7.70;1.70;;;;;;;24.65;35.60;101623.88;5075707;28;20111;-45
2022/05/20 00:56:16;;;;;;;7.88;1.83;;;;;;;24.67;35.77;101622.13;5075695;28;20397;-45
2022/05/20 00:58:44;;;;;;;9.27;2.30;;;;;;;24.57;36.15;101614.94;5074027;28;20033;-45
2022/05/20 01:01:13;;;;;;;13.57;2.17;;;;;;;24.65;35.80;101621.25;5075703;28;20017;-47
2022/05/20 01:03:42;;;;;;;6.78;1.73;;;;;;;24.61;35.76;101615.88;5075692;28;20035;-45
2022/05/20 01:06:11;;;;;;;9.40;2.20;;;;;;;24.65;35.55;101616.00;5075632;28;20033;-46
2022/05/20 01:08:40;;;;;;;9.73;2.10;;;;;;;24.60;35.63;101595.75;5075708;28;20028;-47
2022/05/20 01:11:09;;;;;;;7.25;1.95;;;;;;;24.64;35.51;101602.81;5075594;28;20028;-47
2022/05/20 01:13:38;;;;;;;8.15;2.30;;;;;;;24.58;35.67;101600.97;5075095;28;20021;-48
2022/05/20 01:16:11;;;;;;;4.70;1.60;;;;;;;24.46;35.72;101583.25;5074337;28;20108;-45
2022/05/20 01:18:41;;;;;;;6.07;1.95;;;;;;;24.60;35.66;101595.75;5074155;28;20036;-46
2022/05/20 01:21:10;;;;;;;7.93;2.05;;;;;;;24.61;35.99;101590.56;5057630;28;20048;-45
2022/05/20 01:23:39;;;;;;;7.78;1.55;;;;;;;24.68;35.63;101587.19;5075600;28;20113;-46
2022/05/20 01:26:07;;;;;;;6.03;1.65;;;;;;;24.68;35.93;101583.69;5074874;28;20044;-47
2022/05/20 01:28:36;;;;;;;4.95;1.45;;;;;;;24.67;35.71;101571.41;5075462;28;20027;-46
2022/05/20 01:31:09;;;;;;;10.80;2.03;;;;;;;24.56;35.94;101568.56;5074880;28;20033;-45
2022/05/20 01:33:41;;;;;;;5.88;2.03;;;;;;;24.58;35.96;101574.75;5074661;28;20035;-47
2022/05/20 01:36:15;;;;;;;5.15;1.50;;;;;;;24.64;35.93;101577.50;5073466;28;20032;-45
2022/05/20 01:38:44;;;;;;;4.57;1.45;;;;;;;24.64;36.24;101576.59;5090127;28;20086;-46
2022/05/20 01:41:51;;;;;;;4.20;1.40;;;;;;;24.67;35.96;101574.91;5073879;28;20390;-46
2022/05/20 01:44:38;;;;;;;7.13;1.85;;;;;;;24.69;35.71;101573.22;5074620;28;20532;-45
2022/05/20 01:47:12;;;;;;;8.50;2.13;;;;;;;24.64;36.20;101574.88;5070900;28;20033;-44
2022/05/20 01:49:50;;;;;;;7.65;1.58;;;;;;;24.65;35.81;101568.78;5073788;28;20028;-47
2022/05/20 01:52:56;;;;;;;6.60;1.83;;;;;;;24.64;36.14;101563.47;5074576;28;20033;-47
2022/05/20 01:55:44;;;;;;;6.50;1.42;;;;;;;24.72;35.80;101569.81;5064636;28;20091;-47
2022/05/20 01:58:31;;;;;;;5.20;1.48;;;;;;;24.75;35.99;101558.47;5068034;28;20040;-45
2022/05/20 02:01:03;;;;;;;7.05;1.73;;;;;;;24.60;36.09;101543.28;5074672;28;20024;-47
2022/05/20 02:03:38;;;;;;;8.00;1.65;;;;;;;24.64;35.98;101555.59;5073297;28;20040;-46
2022/05/20 02:06:12;;;;;;;7.32;2.03;;;;;;;24.68;36.12;101560.06;5074589;28;20485;-45
2022/05/20 02:08:44;;;;;;;4.68;1.65;;;;;;;24.64;36.09;101551.25;5072947;28;20039;-48
2022/05/20 02:11:22;;;;;;;6.50;1.98;;;;;;;24.60;35.78;101556.41;5073072;28;20036;-45
2022/05/20 02:13:55;;;;;;;6.22;1.95;;;;;;;24.64;35.99;101553.88;5072968;28;20115;-45
2022/05/20 02:16:30;;;;;;;4.90;1.45;;;;;;;24.64;35.90;101561.75;5072801;28;20028;-44
2022/05/20 02:19:01;;;;;;;;;;;;;;;24.65;35.83;101560.91;5074787;28;20032;-47
2022/05/20 02:21:32;;;;;;;4.78;1.50;;;;;;;24.65;35.61;101560.91;5089575;28;20011;-45
2022/05/20 02:24:05;;;;;;;5.68;1.77;;;;;;;24.53;36.43;101558.91;5074333;28;20024;-45
2022/05/20 02:26:39;;;;;;;3.78;1.23;;;;;;;24.55;36.22;101545.81;5072967;28;20441;-44
2022/05/20 02:29:15;;;;;;;5.93;1.92;;;;;;;24.57;36.21;101560.72;5074097;28;20020;-44
2022/05/20 02:31:57;;;;;;;4.60;1.58;;;;;;;24.46;35.98;101543.03;5073813;28;20036;-45
2022/05/20 02:34:25;;;;;;;4.55;1.58;;;;;;;24.53;35.96;101558.91;5073595;28;20091;-45
2022/05/20 02:36:54;;;;;;;5.05;1.50;;;;;;;24.56;36.01;101555.47;5072781;28;20103;-49
2022/05/20 02:39:23;;;;;;;5.80;1.48;;;;;;;24.56;36.15;101559.00;5089275;28;20025;-45
2022/05/20 02:41:51;;;;;;;5.15;1.35;;;;;;;24.52;36.42;101551.00;5073580;28;20024;-45
2022/05/20 02:44:20;;;;;;;7.35;1.60;;;;;;;24.49;36.02;101543.09;5073707;28;20466;-44
2022/05/20 02:46:48;;;;;;;4.00;1.55;;;;;;;24.46;36.15;101561.38;5072690;28;20028;-47
2022/05/20 02:49:17;;;;;;;5.88;1.65;;;;;;;24.36;36.33;101528.84;5072162;28;20385;-47
2022/05/20 02:51:46;;;;;;;4.63;1.52;;;;;;;24.45;36.04;101552.63;5073544;28;20029;-46
2022/05/20 02:54:14;;;;;;;4.15;1.45;;;;;;;24.53;36.11;101566.78;5073602;28;20020;-44
2022/05/20 02:56:43;;;;;;;6.43;1.90;;;;;;;24.54;35.96;101559.78;5073195;28;20028;-45
2022/05/20 03:04:50;;;;;;;5.80;1.33;;;;;;;24.55;36.36;101570.34;5072713;28;20044;-46
2022/05/20 03:07:18;;;;;;;5.10;1.40;;;;;;;24.37;36.28;101555.09;5073573;28;20066;-48
2022/05/20 03:09:47;;;;;;;4.78;1.70;;;;;;;24.45;36.16;101562.25;5073338;28;20032;-47
2022/05/20 03:12:15;;;;;;;4.32;1.45;;;;;;;24.50;36.03;101568.44;5073381;28;20032;-45
2022/05/20 03:14:44;;;;;;;4.05;1.45;;;;;;;24.44;36.53;101561.34;5073408;28;20108;-45
2022/05/20 03:17:12;;;;;;;5.22;1.60;;;;;;;24.51;36.50;101557.09;5073386;28;20033;-46
2022/05/20 03:19:41;;;;;;;4.18;1.40;;;;;;;24.51;36.38;101557.09;5073124;28;20090;-45
2022/05/20 03:22:09;;;;;;;6.38;1.55;;;;;;;24.46;36.28;101566.63;5073305;28;20063;-51
2022/05/20 03:24:38;;;;;;;6.78;1.27;;;;;;;24.50;36.32;101571.06;5073016;28;20071;-45
2022/05/20 03:27:07;;;;;;;5.13;1.50;;;;;;;24.47;36.25;101566.66;5073299;28;20032;-45
2022/05/20 03:29:36;;;;;;;6.82;1.95;;;;;;;24.53;36.18;101579.00;5072639;28;20031;-45
2022/05/20 03:32:04;;;;;;;7.15;2.22;;;;;;;24.49;36.18;101566.69;5088626;28;20378;-44
2022/05/20 03:34:33;;;;;;;7.95;1.70;;;;;;;24.35;36.66;101558.53;5088809;28;20039;-49
2022/05/20 03:37:01;;;;;;;4.95;1.45;;;;;;;24.34;36.28;101562.88;5072582;28;20074;-49
2022/05/20 03:39:30;;;;;;;6.03;2.13;;;;;;;24.30;36.43;101554.94;5073363;28;20024;-45
2022/05/20 03:41:59;;;;;;;5.25;1.63;;;;;;;24.34;36.65;101546.28;5073256;28;20037;-47
2022/05/20 03:44:27;;;;;;;3.97;1.52;;;;;;;24.30;36.44;101540.09;5071906;28;20056;-44
2022/05/20 03:46:57;;;;;;;4.55;1.27;;;;;;;24.18;36.63;101539.81;5073231;28;20046;-45
2022/05/20 03:49:27;;;;;;;5.43;1.83;;;;;;;24.30;36.89;101545.34;5073540;28;20466;-46
2022/05/20 03:51:56;;;;;;;6.88;1.60;;;;;;;24.29;36.80;101546.19;5073061;28;20054;-46
2022/05/20 03:54:28;;;;;;;4.40;1.63;;;;;;;24.26;36.52;101540.88;5073106;28;20079;-46
2022/05/20 03:56:56;;;;;;;6.18;1.70;;;;;;;24.27;36.33;101526.91;5071859;28;20028;-45
2022/05/20 03:59:25;;;;;;;5.35;1.42;;;;;;;24.35;36.50;101533.19;5072728;28;20032;-47
2022/05/20 04:01:56;;;;;;;7.22;1.73;;;;;;;24.30;36.65;101537.47;5072977;28;20060;-46
2022/05/20 04:04:36;;;;;;;5.65;1.38;;;;;;;24.31;36.41;101534.00;5072896;28;20063;-47
2022/05/20 04:07:08;;;;;;;3.75;1.60;;;;;;;24.32;36.77;101537.50;5073160;28;20027;-44
2022/05/20 04:09:36;;;;;;;4.15;1.20;;;;;;;24.35;36.65;101546.28;5072698;28;20024;-45
2022/05/20 04:12:07;;;;;;;6.28;1.60;;;;;;;24.37;36.65;101528.88;5071421;28;20363;-46
2022/05/20 04:14:36;;;;;;;5.43;1.50;;;;;;;24.38;36.42;101540.25;5074373;28;20032;-46
2022/05/20 04:17:05;;;;;;;5.47;1.38;;;;;;;24.36;36.56;101534.09;5076476;28;20017;-44
2022/05/20 04:19:34;;;;;;;4.43;1.35;;;;;;;24.30;36.44;101532.22;5076593;28;20032;-48
2022/05/20 04:22:07;;;;;;;4.57;1.55;;;;;;;24.37;36.42;101557.72;5076382;28;20027;-48
2022/05/20 04:24:36;;;;;;;6.68;2.00;;;;;;;24.38;36.51;101556.00;5076125;28;20048;-46
2022/05/20 04:27:05;;;;;;;9.32;1.52;;;;;;;24.42;36.69;101556.06;5076218;28;20024;-46
2022/05/20 04:29:34;;;;;;;6.38;1.83;;;;;;;24.42;36.86;101560.41;5076094;28;20025;-48
2022/05/20 04:32:03;;;;;;;5.88;1.60;;;;;;;24.42;36.35;101548.22;5076308;28;20059;-45
2022/05/20 04:34:31;;;;;;;5.38;1.63;;;;;;;24.48;36.81;101564.94;5076210;28;20028;-49
2022/05/20 04:37:00;;;;;;;3.83;1.13;;;;;;;24.50;36.74;101571.06;5076229;28;20469;-45
2022/05/20 04:39:28;;;;;;;4.85;1.42;;;;;;;24.45;36.53;101572.72;5076204;28;20028;-49
2022/05/20 04:47:33;;;;;;;4.80;1.45;;;;;;;24.48;36.77;101592.03;5072291;28;20040;-48
2022/05/20 04:50:02;;;;;;;5.78;1.38;;;;;;;24.53;36.34;101594.75;5075750;28;20021;-50
2022/05/20 04:52:30;;;;;;;6.22;1.60;;;;;;;24.56;36.30;101584.31;5075791;28;20031;-48
2022/05/20 04:54:59;;;;;;;3.45;1.40;;;;;;;24.49;36.70;101578.06;5076026;28;20031;-45
2022/05/20 04:57:36;;;;;;;3.95;1.13;;;;;;;24.58;36.68;101598.34;5075672;28;20039;-47
2022/05/20 05:00:12;;;;;;;5.72;1.55;;;;;;;24.64;36.41;101598.50;5075668;28;20070;-48
2022/05/20 05:02:41;;;;;;;8.18;1.60;;;;;;;24.64;36.52;101608.97;5076018;28;20025;-48
2022/05/20 05:05:12;;;;;;;5.18;1.55;;;;;;;24.51;36.44;101594.72;5075355;28;20474;-48
2022/05/20 05:07:42;;;;;;;5.40;1.42;;;;;;;24.52;36.64;101600.84;5074751;28;20028;-47
2022/05/20 05:10:13;;;;;;;4.47;1.60;;;;;;;24.54;36.71;101617.50;5075394;28;20093;-48
2022/05/20 05:12:41;;;;;;;4.60;1.25;;;;;;;24.47;36.51;101594.63;5075507;28;20024;-50
2022/05/20 05:15:11;;;;;;;5.57;1.30;;;;;;;24.41;36.73;101590.13;5075575;28;20025;-50
2022/05/20 05:18:26;;;;;;;8.70;2.00;;;;;;;24.33;36.67;101596.94;5074163;28;20462;-47
2022/05/20 05:20:27;;;;;;;5.30;1.52;;;;;;;24.34;36.72;101589.09;5071167;28;20036;-47
2022/05/20 05:22:57;;;;;;;4.50;1.38;;;;;;;24.34;36.97;101606.59;5075690;28;20024;-46
2022/05/20 05:25:28;;;;;;;7.03;1.50;;;;;;;24.32;37.37;101637.13;5074405;28;20048;-47
2022/05/20 05:27:57;;;;;;;4.50;1.40;;;;;;;24.28;37.15;101623.06;5075260;28;20112;-45
2022/05/20 05:30:25;;;;;;;4.90;1.27;;;;;;;24.34;36.90;101615.31;5075189;28;20025;-48
2022/05/20 05:32:54;;;;;;;3.63;1.00;;;;;;;24.27;37.09;101632.66;5074993;28;20423;-48
2022/05/20 05:35:25;;;;;;;7.90;1.55;;;;;;;24.27;37.21;101613.44;5073782;28;20099;-45
2022/05/20 05:37:54;;;;;;;6.78;1.55;;;;;;;24.22;37.08;101592.38;5074915;28;20482;-50
2022/05/20 05:40:26;;;;;;;6.05;1.48;;;;;;;24.22;37.23;101604.56;5074798;28;20091;-47
2022/05/20 05:42:55;;;;;;;5.30;1.48;;;;;;;24.25;37.41;101608.13;5057033;28;20033;-48
2022/05/20 05:45:24;;;;;;;8.10;1.88;;;;;;;24.31;37.21;101620.53;5074600;28;20031;-47
2022/05/20 05:47:56;;;;;;;5.47;1.20;;;;;;;24.33;36.79;101612.69;5074859;28;20035;-48
2022/05/20 05:50:25;;;;;;;5.95;1.77;;;;;;;24.35;36.76;101627.59;5074584;28;20032;-49
2022/05/20 05:53:13;;;;;;;4.45;1.40;;;;;;;24.33;36.99;101625.78;5074753;28;20020;-46
2022/05/20 05:55:44;;;;;;;5.18;1.63;;;;;;;24.35;36.96;101627.59;5073208;28;20497;-49
2022/05/20 05:58:13;;;;;;;7.07;2.05;;;;;;;24.22;36.55;101615.06;5074445;28;20036;-46
2022/05/20 06:00:42;;;;;;;4.47;1.50;;;;;;;24.28;37.01;101633.56;5074920;28;20027;-48
2022/05/20 06:03:10;;;;;;;7.22;2.22;;;;;;;24.21;37.03;101618.53;5074517;28;20025;-46
2022/05/20 06:05:39;;;;;;;4.75;1.60;;;;;;;24.18;36.88;101629.84;5074562;28;20085;-50
2022/05/20 06:08:07;;;;;;;4.90;1.50;;;;;;;24.30;36.89;101639.72;5074762;28;20457;-47
2022/05/20 06:10:36;;;;;;;5.05;1.60;;;;;;;24.24;36.81;101653.56;5074312;28;20025;-45
2022/05/20 06:13:05;;;;;;;5.35;1.52;;;;;;;24.30;36.88;101662.44;5074401;28;20027;-48
2022/05/20 06:15:34;;;;;;;8.35;1.80;;;;;;;24.29;37.10;101679.91;5074170;28;20024;-47
2022/05/20 06:18:02;;;;;;;4.47;1.30;;;;;;;24.18;36.91;101673.50;5074058;28;20489;-47
2022/05/20 06:20:31;;;;;;;7.68;1.63;;;;;;;24.26;36.80;101679.84;5073424;28;20036;-45
2022/05/20 06:23:01;;;;;;;4.93;1.38;;;;;;;24.30;36.67;101700.03;5074160;28;20490;-48
2022/05/20 06:25:30;;;;;;;6.05;1.30;;;;;;;24.33;36.44;101710.56;5073946;28;20094;-49
2022/05/20 06:28:06;;;;;;;5.55;1.45;;;;;;;24.22;36.97;101707.72;5074236;28;20020;-46
2022/05/20 06:30:35;;;;;;;9.20;1.83;;;;;;;24.37;37.00;101701.94;5073641;28;20082;-47
2022/05/20 06:33:03;;;;;;;5.80;1.25;;;;;;;24.40;36.70;101696.75;5073862;28;20033;-46
2022/05/20 06:41:07;;;;;;;14.35;1.88;;;;;;;24.40;36.50;101695.91;5073414;28;20040;-50
2022/05/20 06:43:37;;;;;;;7.63;2.22;;;;;;;24.31;36.70;101688.69;5073515;28;20396;-50
2022/05/20 06:46:06;;;;;;;5.43;1.35;;;;;;;24.26;37.15;101713.91;5073801;28;20025;-45
2022/05/20 06:48:54;;;;;;;7.43;1.88;;;;;;;24.23;36.77;101700.72;5072074;28;20535;-45
2022/05/20 06:51:25;;;;;;;8.85;1.60;;;;;;;24.43;36.36;101707.34;5073250;28;20032;-47
2022/05/20 06:53:55;;;;;;;4.82;1.27;;;;;;;24.50;36.55;101692.63;5073692;28;20059;-45
2022/05/20 06:56:26;;;;;;;9.73;1.67;;;;;;;24.47;36.46;101676.81;5073432;28;20021;-47
2022/05/20 06:58:55;;;;;;;5.15;1.50;;;;;;;24.36;36.97;101647.72;5073714;28;20389;-46
2022/05/20 07:01:24;;;;;;;5.85;1.40;;;;;;;24.40;36.48;101662.66;5072122;28;20021;-44
2022/05/20 07:03:52;;;;;;;6.35;1.58;;;;;;;24.30;37.10;101620.47;5073255;28;20140;-45
2022/05/20 07:06:21;;;;;;;9.65;2.22;;;;;;;24.30;36.76;101623.09;5073534;28;20021;-50
2022/05/20 07:08:50;;;;;;;3.75;1.42;;;;;;;24.42;36.62;101674.09;5073457;28;20534;-45
2022/05/20 07:11:20;;;;;;;5.93;1.50;;;;;;;24.54;36.89;101689.22;5072164;28;20494;-47
2022/05/20 07:13:50;;;;;;;4.90;1.38;;;;;;;24.57;36.77;101686.63;5072863;28;20024;-51
2022/05/20 07:16:18;;;;;;;12.50;2.00;;;;;;;24.51;36.60;101680.38;5073197;28;20031;-51
2022/05/20 07:18:47;;;;;;;5.05;1.38;;;;;;;24.49;36.69;101682.97;5073209;28;20030;-49
2022/05/20 07:21:15;;;;;;;4.78;1.70;;;;;;;24.52;36.45;101688.28;5073233;28;20137;-44
2022/05/20 07:23:44;;;;;;;6.15;1.40;;;;;;;24.53;36.45;101712.78;5073113;28;20382;-46
2022/05/20 07:26:13;;;;;;;6.25;1.60;;;;;;;24.58;36.61;101716.41;5073301;28;20044;-46
2022/05/20 07:28:42;;;;;;;5.38;1.67;;;;;;;24.70;36.23;101713.19;5073019;28;20029;-48
2022/05/20 07:31:10;;;;;;;6.82;1.90;;;;;;;24.59;36.64;101710.28;5073286;28;20017;-47
2022/05/20 07:33:39;;;;;;;5.00;1.45;;;;;;;24.65;36.62;101713.06;5073162;28;20025;-49
2022/05/20 07:36:08;;;;;;;4.90;1.35;;;;;;;24.63;36.52;101704.28;5073211;28;20076;-48
2022/05/20 07:38:36;;;;;;;3.47;1.45;;;;;;;24.62;36.13;101696.34;5073231;28;20028;-45
2022/05/20 07:41:05;;;;;;;7.57;1.83;;;;;;;24.63;36.13;101701.66;5073165;28;20070;-49
2022/05/20 07:43:34;;;;;;;5.82;1.45;;;;;;;24.58;36.04;101704.16;5072837;28;20473;-46
2022/05/20 07:46:03;;;;;;;5.57;1.73;;;;;;;24.55;36.51;101701.47;5072848;28;20054;-46
2022/05/20 07:48:32;;;;;;;5.50;1.50;;;;;;;24.49;36.76;101719.69;5073593;28;20020;-47
2022/05/20 07:51:04;;;;;;;4.18;1.40;;;;;;;24.64;35.94;101721.78;5076439;28;20040;-48
2022/05/20 07:53:37;;;;;;;5.35;1.65;;;;;;;24.77;36.08;101725.56;5077023;28;20033;-48
2022/05/20 07:56:18;;;;;;;5.20;1.30;;;;;;;24.91;35.85;101725.88;5077117;28;20035;-47
2022/05/20 07:58:53;;;;;;;3.05;0.93;;;;;;;25.07;35.42;101727.06;5092293;28;20025;-46
2022/05/20 08:01:28;;;;;;;6.95;1.83;;;;;;;25.24;35.28;101724.81;5075553;28;20086;-49
2022/05/20 08:06:50;;;;;;;3.00;1.25;;;;;;;25.16;34.80;101700.13;5076214;28;20028;-49
2022/05/20 08:09:19;;;;;;;5.13;1.75;;;;;;;25.37;34.74;101709.28;5076613;28;20127;-50
2022/05/20 08:11:47;;;;;;;5.07;1.25;;;;;;;25.30;35.37;101703.00;5075304;28;20554;-45
2022/05/20 08:14:16;;;;;;;6.72;1.58;;;;;;;25.28;34.99;101709.97;5076670;28;20040;-48
2022/05/20 08:16:44;;;;;;;5.85;1.40;;;;;;;25.25;35.12;101709.91;5076075;28;20055;-46
2022/05/20 08:19:13;;;;;;;6.68;1.40;;;;;;;25.36;35.27;101718.00;5076517;28;20028;-46
2022/05/20 08:21:42;;;;;;;4.63;1.05;;;;;;;25.44;34.87;101708.56;5076461;28;20485;-47
2022/05/20 08:24:10;;;;;;;3.22;1.13;;;;;;;25.40;35.08;101717.22;5075392;28;20024;-51
2022/05/20 08:26:39;;;;;;;4.13;1.10;;;;;;;25.59;35.09;101722.00;5075804;28;20648;-47
2022/05/20 08:29:09;;;;;;;7.60;1.40;;;;;;;25.60;34.98;101721.13;5076429;28;20029;-47
2022/05/20 08:31:37;;;;;;;6.20;1.42;;;;;;;25.53;35.10;101726.25;5076028;28;20060;-46
2022/05/20 08:34:06;;;;;;;2.72;1.02;;;;;;;25.58;35.07;101724.56;5076170;28;20025;-48
2022/05/20 08:36:35;;;;;;;2.47;0.80;;;;;;;25.61;35.23;101743.03;5076258;28;20521;-46
2022/05/20 08:39:04;;;;;;;7.43;1.30;;;;;;;25.66;35.01;101738.75;5075879;28;20406;-45
2022/05/20 08:41:45;;;;;;;5.70;1.98;;;;;;;25.65;35.23;101741.34;5076041;28;20036;-46
2022/05/20 08:44:18;;;;;;;5.28;1.50;;;;;;;25.66;35.43;101740.47;5076157;28;20028;-45
2022/05/20 08:46:48;;;;;;;6.15;1.40;;;;;;;25.68;35.43;101738.75;5075736;28;20580;-51
2022/05/20 08:49:19;;;;;;;5.57;1.30;;;;;;;25.74;35.07;101739.75;5076034;28;20103;-45
2022/05/20 08:51:52;;;;;;;7.25;1.55;;;;;;;25.79;35.38;101731.97;5075895;28;20025;-50
2022/05/20 08:54:21;;;;;;;4.95;1.30;;;;;;;25.82;35.27;101746.91;5075862;28;20048;-48
2022/05/20 08:56:50;;;;;;;4.75;1.50;;;;;;;25.83;35.59;101749.53;5074404;28;20069;-49
2022/05/20 08:59:21;;;;;;;5.60;1.38;;;;;;;25.82;35.15;101744.28;5075404;28;20516;-47
2022/05/20 09:01:52;;;;;;;6.97;1.60;;;;;;;25.90;35.25;101753.16;5073741;28;20378;-51
2022/05/20 09:04:22;;;;;;;6.65;1.48;;;;;;;25.88;35.31;101744.38;5075821;28;20016;-48
2022/05/20 09:07:11;;;;;;;6.75;1.10;;;;;;;25.98;35.25;101755.94;5075637;28;20021;-50
2022/05/20 09:09:51;;;;;;;4.15;1.10;;;;;;;25.99;35.28;101761.22;5075491;28;20024;-49
2022/05/20 09:12:31;;;;;;;2.45;1.08;;;;;;;26.06;35.50;101757.81;5075726;28;20025;-46
2022/05/20 09:17:51;;;;;;;5.13;1.15;;;;;;;26.16;35.27;101758.03;5072044;28;20033;-49
2022/05/20 09:20:20;;;;;;;6.00;0.90;;;;;;;26.18;35.45;101762.44;5076208;28;20024;-47
2022/05/20 09:23:07;;;;;;;2.55;0.77;;;;;;;26.27;35.28;101761.69;5074280;28;20025;-48
2022/05/20 09:25:37;;;;;;;4.35;1.17;;;;;;;26.24;35.44;101766.91;5074693;28;20049;-47
2022/05/20 09:28:44;;;;;;;6.03;1.35;;;;;;;26.32;35.17;101764.41;5073990;28;20107;-48
2022/05/20 09:31:24;;;;;;;5.10;1.35;;;;;;;26.32;35.34;101765.31;5071554;28;20117;-47
2022/05/20 09:34:15;;;;;;;2.20;0.70;;;;;;;26.37;35.23;101763.63;5074301;28;20059;-48
2022/05/20 09:37:05;;;;;;;2.95;1.10;;;;;;;26.44;35.07;101772.50;5074238;28;20056;-46
2022/05/20 09:39:45;;;;;;;4.20;1.33;;;;;;;26.43;35.23;101767.19;5070559;28;20047;-48
2022/05/20 09:42:19;;;;;;;3.20;0.75;;;;;;;26.44;35.29;101772.50;5073905;28;20432;-44
2022/05/20 09:44:59;;;;;;;3.17;0.68;;;;;;;26.44;35.42;101780.41;5073607;28;20024;-45
2022/05/20 09:47:46;;;;;;;3.08;1.30;;;;;;;26.31;34.02;101786.34;5075041;28;20462;-49
2022/05/20 09:50:34;;;;;;;3.70;1.15;;;;;;;26.21;34.07;101790.56;5074934;28;20070;-50
2022/05/20 09:53:09;;;;;;;2.78;1.05;;;;;;;26.06;34.20;101784.13;5073627;28;20440;-44
2022/05/20 09:55:41;;;;;;;3.47;1.10;;;;;;;26.08;34.56;101789.41;5074599;28;20028;-46
2022/05/20 09:58:28;;;;;;;4.45;0.90;;;;;;;26.16;34.12;101781.69;5074715;28;20409;-47
2022/05/20 10:01:10;;;;;;;3.65;1.15;;;;;;;26.11;34.41;101792.13;5074409;28;20432;-48
2022/05/20 10:03:41;;;;;;;3.60;0.98;;;;;;;25.89;33.67;101788.22;5073228;28;20490;-49
2022/05/20 10:06:13;;;;;;;2.85;0.73;;;;;;;25.83;33.97;101786.34;5074826;28;20052;-47
2022/05/20 10:08:47;;;;;;;5.80;1.00;;;;;;;25.70;34.28;101792.22;5074308;28;20029;-50
2022/05/20 10:11:37;;;;;;;3.97;1.00;;;;;;;25.53;34.63;101799.81;5073578;28;20035;-48
2022/05/20 10:14:11;;;;;;;7.50;1.20;;;;;;;25.53;34.50;101802.44;5068281;28;20040;-44
2022/05/20 10:17:00;;;;;;;4.75;1.00;;;;;;;25.60;34.36;101801.69;5073336;28;20031;-45
2022/05/20 10:19:52;;;;;;;4.85;0.95;;;;;;;25.72;34.33;101811.53;5072657;28;20059;-44
2022/05/20 10:22:25;;;;;;;2.67;0.90;;;;;;;25.73;34.32;101811.56;5056738;28;20543;-48
2022/05/20 10:25:17;;;;;;;1.55;0.60;;;;;;;25.63;33.66;101814.88;5073703;28;20102;-46
2022/05/20 10:28:05;;;;;;;1.95;0.57;;;;;;;25.61;34.29;101811.34;5070716;28;20557;-44
2022/05/20 10:33:35;;;;;;;2.38;0.80;;;;;;;25.52;34.53;101819.91;5067334;28;20055;-48
2022/05/20 10:36:25;;;;;;;2.13;1.00;;;;;;;25.67;34.74;101826.34;5073982;28;20036;-48
2022/05/20 10:39:00;;;;;;;4.85;1.33;;;;;;;25.53;34.75;101824.31;5062652;28;20040;-48
2022/05/20 10:42:06;;;;;;;2.78;0.80;;;;;;;25.46;34.86;101823.31;5072595;28;20028;-45
2022/05/20 10:50:33;;;;;;;7.55;1.00;;;;;;;25.34;35.57;101846.69;5069690;28;20032;-47
2022/05/20 10:53:26;;;;;;;3.15;0.90;;;;;;;25.29;35.81;101846.59;5073740;28;20033;-43
2022/05/20 10:56:01;;;;;;;3.85;1.17;;;;;;;25.39;35.32;101846.78;5070006;28;20052;-47
2022/05/20 10:58:33;;;;;;;2.70;0.93;;;;;;;25.44;35.61;101847.78;5073579;28;20052;-46
2022/05/20 11:01:28;;;;;;;2.63;1.00;;;;;;;25.42;35.62;101852.13;5073230;28;20070;-45
2022/05/20 11:04:15;;;;;;;2.38;0.70;;;;;;;25.28;35.82;101855.31;5072723;28;20029;-48
2022/05/20 11:06:47;;;;;;;3.03;0.93;;;;;;;25.30;35.81;101869.38;5073568;28;20103;-45
2022/05/20 11:09:37;;;;;;;1.30;0.73;;;;;;;25.31;36.16;101862.38;5073704;28;20024;-44
2022/05/20 11:12:05;;;;;;;4.95;1.27;;;;;;;25.20;36.20;101869.13;5068613;28;20052;-49
2022/05/20 11:14:42;;;;;;;3.85;0.93;;;;;;;25.14;36.43;101864.63;5073364;28;20107;-45
2022/05/20 11:17:12;;;;;;;3.42;0.95;;;;;;;25.01;36.65;101882.72;5073378;28;20040;-44
2022/05/20 11:20:18;;;;;;;5.25;1.60;;;;;;;25.03;37.16;101886.25;5073214;28;20035;-50
2022/05/20 11:23:05;;;;;;;2.88;0.90;;;;;;;24.96;37.16;101884.38;5072791;28;20378;-49
2022/05/20 11:26:03;;;;;;;5.30;1.50;;;;;;;24.84;37.78;101889.31;5066396;28;20040;-49
2022/05/20 11:28:37;;;;;;;4.60;1.20;;;;;;;24.84;37.60;101891.94;5069355;28;20074;-49
2022/05/20 11:31:24;;;;;;;4.50;1.25;;;;;;;24.86;37.47;101893.75;5072043;28;20028;-45
2022/05/20 11:34:31;;;;;;;4.85;1.20;;;;;;;24.91;37.46;101901.72;5068954;28;20378;-45
2022/05/20 11:37:31;;;;;;;5.60;1.30;;;;;;;24.78;37.91;101905.78;5069288;28;20029;-45
2022/05/20 11:40:22;;;;;;;4.85;1.38;;;;;;;24.83;38.22;101904.19;5072049;28;20196;-48
2022/05/20 11:43:10;;;;;;;5.20;1.42;;;;;;;24.93;38.25;101910.53;5072782;28;20020;-45
2022/05/20 11:45:52;;;;;;;3.47;1.10;;;;;;;25.08;37.98;101914.38;5072542;28;20029;-51
2022/05/20 11:48:43;;;;;;;3.67;0.90;;;;;;;25.22;38.00;101909.44;5071596;28;20017;-48
2022/05/20 11:51:20;;;;;;;8.25;1.30;;;;;;;25.13;37.48;101912.75;5073028;28;20048;-50
2022/05/20 11:53:58;;;;;;;4.18;1.10;;;;;;;25.05;37.62;101914.28;5055140;28;20036;-48
2022/05/20 11:56:58;;;;;;;1.90;0.73;;;;;;;24.97;37.49;101891.38;5073029;28;20031;-47
2022/05/20 11:59:35;;;;;;;6.50;1.50;;;;;;;25.00;37.67;101915.06;5070080;28;20078;-48
2022/05/20 12:02:08;;;;;;;2.95;1.30;;;;;;;25.02;37.40;101918.63;5063396;28;20028;-44
2022/05/20 12:04:37;;;;;;;4.05;1.27;;;;;;;25.00;37.29;101922.94;5063237;28;20032;-50
2022/05/20 12:07:10;;;;;;;4.55;1.08;;;;;;;24.92;37.66;101923.59;5071044;28;20024;-49
2022/05/20 12:09:43;;;;;;;5.00;1.38;;;;;;;24.83;37.52;101930.41;5072585;28;20533;-46
2022/05/20 12:12:20;;;;;;;5.20;1.40;;;;;;;24.76;38.36;101932.84;5072780;28;20043;-46
2022/05/20 12:15:09;;;;;;;4.05;0.77;;;;;;;24.91;38.08;101929.69;5072858;28;20020;-48
2022/05/20 12:17:45;;;;;;;4.90;1.20;;;;;;;25.05;37.67;101935.28;5059294;28;20434;-50
2022/05/20 12:24:12;;;;;;;;;;;;;;;25.19;38.14;101944.38;5049129;28;20033;-49
2022/05/20 12:26:09;;;;;;;8.10;1.63;;;;;;;24.97;38.01;101948.25;5052525;28;19963;-49
2022/05/20 12:28:39;;;;;;;4.82;1.50;;;;;;;24.85;38.26;101956.69;5052873;28;20063;-46
2022/05/20 12:31:07;;;;;;;4.78;1.50;;;;;;;24.71;38.81;101966.84;5051281;28;20037;-46